Time;durP1;ratioP1;P1;durP2;ratioP2;P2;SDS_P1;SDS_P2;PMS_P1;PMS_P2;Temp;Humidity;BMP_temperature;BMP_pressure;BME280_temperature;BME280_humidity;BME280_pressure;Samples;Min_cycle;Max_cycle;Signal;HPM_P1;HPM_P2
2023/03/18 00:00:17;;;;;;;;;;;11.30;99.90;;;;;;5036916;28;19937;-93
2023/03/18 00:02:44;;;;;;;;;;;11.40;99.90;;;;;;4998701;28;20468;-93
2023/03/18 00:05:10;;;;;;;;;;;11.30;99.90;;;;;;5023979;28;19934;-93
2023/03/18 00:07:36;;;;;;;;;;;11.40;99.90;;;;;;5018888;28;19984;-92
2023/03/18 00:10:02;;;;;;;;;;;11.40;99.90;;;;;;5010271;28;19929;-92
2023/03/18 00:12:28;;;;;;;;;;;11.30;99.90;;;;;;5026119;28;20384;-93
2023/03/18 00:14:54;;;;;;;;;;;11.30;99.90;;;;;;5006913;28;19933;-93
2023/03/18 00:17:19;;;;;;;;;;;11.30;99.90;;;;;;5010224;28;19925;-92
2023/03/18 00:19:45;;;;;;;;;;;11.30;99.90;;;;;;5003838;28;19925;-93
2023/03/18 00:22:11;;;;;;;;;;;11.30;99.90;;;;;;5006218;28;19926;-92
2023/03/18 00:24:36;;;;;;;;;;;11.30;99.90;;;;;;5031975;28;19929;-91
2023/03/18 00:27:02;;;;;;;;;;;11.20;99.90;;;;;;5001256;28;19925;-92
2023/03/18 00:29:29;;;;;;;;;;;11.20;99.90;;;;;;5025311;28;19985;-92
2023/03/18 00:31:56;;;;;;;;;;;11.10;99.90;;;;;;5025544;28;19925;-93
2023/03/18 00:34:22;;;;;;;;;;;12.00;99.90;;;;;;5019866;28;19926;-91
2023/03/18 00:36:49;;;;;;;;;;;11.00;99.90;;;;;;5017817;28;20019;-94
2023/03/18 00:39:17;;;;;;;;;;;11.00;99.90;;;;;;5000805;28;19925;-94
2023/03/18 00:41:47;;;;;;;;;;;10.90;99.90;;;;;;5016961;28;19956;-92
2023/03/18 00:44:13;;;;;;;;;;;10.90;99.90;;;;;;5021390;28;20288;-93
2023/03/18 00:46:39;;;;;;;;;;;10.90;99.90;;;;;;5001227;28;19926;-92
2023/03/18 00:49:06;;;;;;;;;;;10.80;99.90;;;;;;5018164;28;19932;-92
2023/03/18 00:51:33;;;;;;;;;;;10.80;99.90;;;;;;5042595;28;19957;-93
2023/03/18 00:54:00;;;;;;;;;;;10.80;99.90;;;;;;5020582;28;19968;-92
2023/03/18 00:56:28;;;;;;;;;;;10.70;99.90;;;;;;5044348;28;19935;-92
2023/03/18 00:58:53;;;;;;;;;;;10.70;99.90;;;;;;5022974;28;19935;-92
2023/03/18 01:01:20;;;;;;;;;;;10.60;99.90;;;;;;5009575;28;19926;-93
2023/03/18 01:03:46;;;;;;;;;;;10.50;99.90;;;;;;5033921;28;19932;-93
2023/03/18 01:06:16;;;;;;;;;;;10.50;99.90;;;;;;5027671;28;19925;-92
2023/03/18 01:08:42;;;;;;;;;;;10.40;99.90;;;;;;5027441;28;19979;-91
2023/03/18 01:11:08;;;;;;;;;;;10.30;99.90;;;;;;5038046;28;19933;-93
2023/03/18 01:13:34;;;;;;;;;;;10.20;99.90;;;;;;5025384;28;20370;-92
2023/03/18 01:16:02;;;;;;;;;;;10.20;99.90;;;;;;5025071;28;19933;-92
2023/03/18 01:18:28;;;;;;;;;;;10.10;99.90;;;;;;5020223;28;19929;-91
2023/03/18 01:20:54;;;;;;;;;;;10.10;99.90;;;;;;5024150;28;19991;-92
2023/03/18 01:23:20;;;;;;;;;;;10.10;99.90;;;;;;5042435;28;19925;-91
2023/03/18 01:25:45;;;;;;;;;;;10.00;99.90;;;;;;5011211;28;19947;-92
2023/03/18 01:28:12;;;;;;;;;;;10.00;99.90;;;;;;5006188;28;19925;-93
2023/03/18 01:30:38;;;;;;;;;;;10.00;99.90;;;;;;5022405;28;19936;-92
2023/03/18 01:33:04;;;;;;;;;;;9.90;99.90;;;;;;5016676;28;19924;-93
2023/03/18 01:35:31;;;;;;;;;;;10.00;99.90;;;;;;5023065;28;19925;-93
2023/03/18 01:37:57;;;;;;;;;;;9.90;99.90;;;;;;5025369;28;19971;-93
2023/03/18 01:40:24;;;;;;;;;;;9.90;99.90;;;;;;5018774;28;19932;-94
2023/03/18 01:43:13;;;;;;;;;;;9.90;99.90;;;;;;5013418;28;19925;-91
2023/03/18 01:45:39;;;;;;;;;;;9.90;99.90;;;;;;5030196;28;19944;-92
2023/03/18 01:48:05;;;;;;;;;;;9.80;99.90;;;;;;5025308;28;19952;-92
2023/03/18 01:50:35;;;;;;;;;;;9.80;99.90;;;;;;5029252;28;19983;-94
2023/03/18 01:53:07;;;;;;;;;;;9.80;99.90;;;;;;5042995;28;19929;-92
2023/03/18 01:55:33;;;;;;;;;;;9.80;99.90;;;;;;5016056;28;19929;-93
2023/03/18 01:58:00;;;;;;;;;;;9.80;99.90;;;;;;5022023;28;19925;-91
2023/03/18 02:00:27;;;;;;;;;;;9.80;99.90;;;;;;5024430;28;19925;-93
2023/03/18 02:02:53;;;;;;;;;;;9.70;99.90;;;;;;5029736;28;19947;-93
2023/03/18 02:05:24;;;;;;;;;;;9.70;99.90;;;;;;5006907;28;19925;-92
2023/03/18 02:07:50;;;;;;;;;;;9.70;99.90;;;;;;5024075;28;19925;-91
2023/03/18 02:10:18;;;;;;;;;;;9.70;99.90;;;;;;5028858;28;19932;-91
2023/03/18 02:12:48;;;;;;;;;;;9.70;99.90;;;;;;5026569;28;19925;-92
2023/03/18 02:15:15;;;;;;;;;;;9.70;99.90;;;;;;5025910;28;19925;-91
2023/03/18 02:17:44;;;;;;;;;;;9.70;99.90;;;;;;5027572;28;19925;-92
2023/03/18 02:20:34;;;;;;;;;;;9.70;99.90;;;;;;5025469;28;19947;-92
2023/03/18 02:23:08;;;;;;;;;;;9.70;99.90;;;;;;5025317;28;19925;-93
2023/03/18 02:25:46;;;;;;;;;;;9.70;99.90;;;;;;5043841;28;19992;-91
2023/03/18 02:28:13;;;;;;;;;;;9.70;99.90;;;;;;5024849;28;19935;-94
2023/03/18 02:30:41;;;;;;;;;;;9.70;99.90;;;;;;5015968;28;19925;-92
2023/03/18 02:33:08;;;;;;;;;;;9.70;99.90;;;;;;5038526;28;19964;-91
2023/03/18 02:35:34;;;;;;;;;;;9.60;99.90;;;;;;5050447;28;19925;-93
2023/03/18 02:38:00;;;;;;;;;;;9.60;99.90;;;;;;5044269;28;19925;-91
2023/03/18 02:40:26;;;;;;;;;;;9.60;99.90;;;;;;5026880;28;19924;-91
2023/03/18 02:42:52;;;;;;;;;;;9.60;99.90;;;;;;5021627;28;19932;-93
2023/03/18 02:45:30;;;;;;;;;;;9.50;99.90;;;;;;5006348;28;20012;-93
2023/03/18 02:47:57;;;;;;;;;;;9.50;99.90;;;;;;5029517;28;20372;-93
2023/03/18 02:50:23;;;;;;;;;;;9.50;99.90;;;;;;5042079;28;19981;-93
2023/03/18 02:52:49;;;;;;;;;;;9.40;99.90;;;;;;5010283;28;19932;-93
2023/03/18 02:55:15;;;;;;;;;;;9.40;99.90;;;;;;5023553;28;19925;-91
2023/03/18 02:57:40;;;;;;;;;;;9.40;99.90;;;;;;5001249;28;19925;-92
2023/03/18 03:00:08;;;;;;;;;;;9.30;99.90;;;;;;4995997;28;20476;-91
2023/03/18 03:02:34;;;;;;;;;;;9.30;99.90;;;;;;5010391;28;19985;-93
2023/03/18 03:04:59;;;;;;;;;;;9.30;99.90;;;;;;5033807;28;19925;-92
2023/03/18 03:07:26;;;;;;;;;;;9.20;99.90;;;;;;5021448;28;19965;-93
2023/03/18 03:09:52;;;;;;;;;;;9.10;99.90;;;;;;5019890;28;19932;-93
2023/03/18 03:12:17;;;;;;;;;;;9.10;99.90;;;;;;5020725;28;20388;-92
2023/03/18 03:14:43;;;;;;;;;;;9.10;99.90;;;;;;5001938;28;20409;-92
2023/03/18 03:17:09;;;;;;;;;;;9.10;99.90;;;;;;5008049;28;19989;-94
2023/03/18 03:19:35;;;;;;;;;;;9.10;99.90;;;;;;5022851;28;19925;-91
2023/03/18 03:22:00;;;;;;;;;;;9.00;99.90;;;;;;5027003;28;20036;-92
2023/03/18 03:24:26;;;;;;;;;;;9.00;99.90;;;;;;5002581;28;19948;-91
2023/03/18 03:26:52;;;;;;;;;;;9.00;99.90;;;;;;5011445;28;19932;-91
2023/03/18 03:29:18;;;;;;;;;;;8.90;99.90;;;;;;5009422;28;19932;-91
2023/03/18 03:31:44;;;;;;;;;;;8.90;99.90;;;;;;5010992;28;20046;-93
2023/03/18 03:34:09;;;;;;;;;;;8.90;99.90;;;;;;5003734;28;19968;-93
2023/03/18 03:36:35;;;;;;;;;;;8.90;99.90;;;;;;5025453;28;19936;-92
2023/03/18 03:39:01;;;;;;;;;;;8.90;99.90;;;;;;4997310;28;19925;-92
2023/03/18 03:41:27;;;;;;;;;;;8.90;99.90;;;;;;4996652;28;19929;-94
2023/03/18 03:43:53;;;;;;;;;;;8.90;99.90;;;;;;5022173;28;19933;-93
2023/03/18 03:46:19;;;;;;;;;;;8.90;99.90;;;;;;5008609;28;19925;-92
2023/03/18 03:48:46;;;;;;;;;;;8.90;99.90;;;;;;5010252;28;19925;-93
2023/03/18 03:51:13;;;;;;;;;;;8.80;99.90;;;;;;5007793;28;19933;-92
2023/03/18 03:53:39;;;;;;;;;;;8.90;99.90;;;;;;5017386;28;19926;-92
2023/03/18 03:56:06;;;;;;;;;;;8.90;99.90;;;;;;5043605;28;20265;-93
2023/03/18 03:58:33;;;;;;;;;;;8.90;99.90;;;;;;5024344;28;20040;-94
2023/03/18 04:00:58;;;;;;;;;;;8.90;99.90;;;;;;5026616;28;19925;-92
2023/03/18 04:03:24;;;;;;;;;;;8.90;99.90;;;;;;5010288;28;19926;-91
2023/03/18 04:05:52;;;;;;;;;;;8.90;99.90;;;;;;5025877;28;19933;-93
2023/03/18 04:08:23;;;;;;;;;;;8.90;99.90;;;;;;5007364;28;20296;-91
2023/03/18 04:10:49;;;;;;;;;;;8.90;99.90;;;;;;5005177;28;19971;-93
2023/03/18 04:13:15;;;;;;;;;;;8.90;99.90;;;;;;5042761;28;20391;-91
2023/03/18 04:15:40;;;;;;;;;;;8.90;99.90;;;;;;5040444;28;19933;-93
2023/03/18 04:18:06;;;;;;;;;;;8.90;99.90;;;;;;5010011;28;19929;-92
2023/03/18 04:20:33;;;;;;;;;;;8.90;99.90;;;;;;5008903;28;19979;-93
2023/03/18 04:22:59;;;;;;;;;;;8.90;99.90;;;;;;5025183;28;19932;-93
2023/03/18 04:25:25;;;;;;;;;;;8.90;99.90;;;;;;4997742;28;20369;-92
2023/03/18 04:27:51;;;;;;;;;;;8.90;99.90;;;;;;5012938;28;19932;-93
2023/03/18 04:30:19;;;;;;;;;;;8.90;99.90;;;;;;5023353;28;19931;-91
2023/03/18 04:32:44;;;;;;;;;;;8.90;99.90;;;;;;5021544;28;20004;-93
2023/03/18 04:35:10;;;;;;;;;;;8.90;99.90;;;;;;5026368;28;19925;-93
2023/03/18 04:37:36;;;;;;;;;;;8.90;99.90;;;;;;5023006;28;19925;-92
2023/03/18 04:40:03;;;;;;;;;;;8.90;99.90;;;;;;5026481;28;19925;-92
2023/03/18 04:42:29;;;;;;;;;;;8.90;99.90;;;;;;5013513;28;19929;-93
2023/03/18 04:44:55;;;;;;;;;;;8.90;99.90;;;;;;5008047;28;20304;-92
2023/03/18 04:47:21;;;;;;;;;;;8.90;99.90;;;;;;5025804;28;19926;-92
2023/03/18 04:49:47;;;;;;;;;;;8.90;99.90;;;;;;5022263;28;19925;-93
2023/03/18 04:52:12;;;;;;;;;;;8.90;99.90;;;;;;5008829;28;19932;-92
2023/03/18 04:54:38;;;;;;;;;;;8.90;99.90;;;;;;5007779;28;19925;-94
2023/03/18 04:57:05;;;;;;;;;;;8.90;99.90;;;;;;5009666;28;20274;-92
2023/03/18 04:59:31;;;;;;;;;;;8.80;99.90;;;;;;5024589;28;19940;-93
2023/03/18 05:01:56;;;;;;;;;;;8.80;99.90;;;;;;5011531;28;19979;-91
2023/03/18 05:04:22;;;;;;;;;;;8.80;99.90;;;;;;5006756;28;19931;-92
2023/03/18 05:06:48;;;;;;;;;;;8.80;99.90;;;;;;5003217;28;19925;-92
2023/03/18 05:09:14;;;;;;;;;;;8.80;99.90;;;;;;5002484;28;19948;-92
2023/03/18 05:11:39;;;;;;;;;;;8.80;99.90;;;;;;5007296;28;19925;-92
2023/03/18 05:14:05;;;;;;;;;;;8.80;99.90;;;;;;5009081;28;19925;-92
2023/03/18 05:16:31;;;;;;;;;;;8.80;99.90;;;;;;5001364;28;20008;-94
2023/03/18 05:18:56;;;;;;;;;;;8.80;99.90;;;;;;5008743;28;20312;-91
2023/03/18 05:21:22;;;;;;;;;;;8.80;99.90;;;;;;5008373;28;19932;-91
2023/03/18 05:23:48;;;;;;;;;;;8.80;99.90;;;;;;5005227;28;19981;-92
2023/03/18 05:26:13;;;;;;;;;;;8.80;99.90;;;;;;5001744;28;19925;-92
2023/03/18 05:28:45;;;;;;;;;;;8.80;99.90;;;;;;5024082;28;19925;-91
2023/03/18 05:31:11;;;;;;;;;;;8.90;99.90;;;;;;5008163;28;19925;-92
2023/03/18 05:33:37;;;;;;;;;;;8.90;99.90;;;;;;4999086;28;19929;-91
2023/03/18 05:36:03;;;;;;;;;;;8.90;99.90;;;;;;5024064;28;19925;-95
2023/03/18 05:38:28;;;;;;;;;;;9.00;99.90;;;;;;5007840;28;20308;-91
2023/03/18 05:40:54;;;;;;;;;;;9.00;99.90;;;;;;5004259;28;19925;-91
2023/03/18 05:43:20;;;;;;;;;;;9.00;99.90;;;;;;5012417;28;19925;-92
2023/03/18 05:45:47;;;;;;;;;;;9.00;99.90;;;;;;5022685;28;19936;-92
2023/03/18 05:48:12;;;;;;;;;;;9.00;99.90;;;;;;5024590;28;19998;-93
2023/03/18 05:50:41;;;;;;;;;;;8.90;99.90;;;;;;4999177;28;19925;-93
2023/03/18 05:53:07;;;;;;;;;;;9.00;99.90;;;;;;5019186;28;19956;-93
2023/03/18 05:55:33;;;;;;;;;;;8.90;99.90;;;;;;5021853;28;19983;-93
2023/03/18 05:57:59;;;;;;;;;;;8.90;99.90;;;;;;5023274;28;19925;-91
2023/03/18 06:00:27;;;;;;;;;;;8.90;99.90;;;;;;5024920;28;19932;-93
2023/03/18 06:02:53;;;;;;;;;;;8.90;99.90;;;;;;5022703;28;19932;-92
2023/03/18 06:05:20;;;;;;;;;;;8.90;99.90;;;;;;5021928;28;19968;-91
2023/03/18 06:07:46;;;;;;;;;;;8.90;99.90;;;;;;5021623;28;19984;-91
2023/03/18 06:10:11;;;;;;;;;;;8.90;99.90;;;;;;5024514;28;19936;-91
2023/03/18 06:12:38;;;;;;;;;;;8.90;99.90;;;;;;5007502;28;19937;-92
2023/03/18 06:15:05;;;;;;;;;;;8.90;99.90;;;;;;5039861;28;19925;-93
2023/03/18 06:17:31;;;;;;;;;;;8.90;99.90;;;;;;5025801;28;20039;-92
2023/03/18 06:19:58;;;;;;;;;;;8.90;99.90;;;;;;5005761;28;20020;-93
2023/03/18 06:22:23;;;;;;;;;;;8.90;99.90;;;;;;5023307;28;19925;-92
2023/03/18 06:24:49;;;;;;;;;;;8.90;99.90;;;;;;5002066;28;19971;-93
2023/03/18 06:27:14;;;;;;;;;;;8.90;99.90;;;;;;5007928;28;19976;-91
2023/03/18 06:29:40;;;;;;;;;;;8.90;99.90;;;;;;5021218;28;19990;-91
2023/03/18 06:32:07;;;;;;;;;;;9.00;99.90;;;;;;5007293;28;19928;-90
2023/03/18 06:34:34;;;;;;;;;;;9.00;99.90;;;;;;5026544;28;20273;-90
2023/03/18 06:36:59;;;;;;;;;;;9.00;99.90;;;;;;5022553;28;19925;-91
2023/03/18 06:39:27;;;;;;;;;;;9.10;99.90;;;;;;4999905;28;20454;-90
2023/03/18 06:41:53;;;;;;;;;;;9.10;99.90;;;;;;5001014;28;20003;-89
2023/03/18 06:44:20;;;;;;;;;;;9.10;99.90;;;;;;5015828;28;19948;-92
2023/03/18 06:46:46;;;;;;;;;;;9.20;99.90;;;;;;5007138;28;19925;-92
2023/03/18 06:49:11;;;;;;;;;;;9.20;99.90;;;;;;5007316;28;19926;-92
2023/03/18 06:51:37;;;;;;;;;;;9.20;99.90;;;;;;5025754;28;19928;-92
2023/03/18 06:54:04;;;;;;;;;;;9.20;99.90;;;;;;5015388;28;19925;-91
2023/03/18 06:56:32;;;;;;;;;;;9.30;99.90;;;;;;4999406;28;19948;-91
2023/03/18 06:58:58;;;;;;;;;;;9.30;99.90;;;;;;5003441;28;19992;-90
2023/03/18 07:01:24;;;;;;;;;;;9.30;99.90;;;;;;5023325;28;19932;-91
2023/03/18 07:03:50;;;;;;;;;;;9.40;99.90;;;;;;5038408;28;19948;-91
2023/03/18 07:06:17;;;;;;;;;;;9.40;99.90;;;;;;5017722;28;19926;-91
2023/03/18 07:08:43;;;;;;;;;;;9.50;99.90;;;;;;5023216;28;19929;-91
2023/03/18 07:11:09;;;;;;;;;;;9.50;99.90;;;;;;5011857;28;19929;-92
2023/03/18 07:13:35;;;;;;;;;;;9.60;99.90;;;;;;5005765;28;19929;-93
2023/03/18 07:16:00;;;;;;;;;;;9.70;99.90;;;;;;5006604;28;19926;-90
2023/03/18 07:18:26;;;;;;;;;;;9.90;99.90;;;;;;5020111;28;19971;-92
2023/03/18 07:20:52;;;;;;;;;;;9.90;99.90;;;;;;5036759;28;19983;-92
2023/03/18 07:23:17;;;;;;;;;;;10.00;99.90;;;;;;5015687;28;20036;-91
2023/03/18 07:25:43;;;;;;;;;;;10.10;99.90;;;;;;5043578;28;19925;-91
2023/03/18 07:28:09;;;;;;;;;;;10.10;99.90;;;;;;5015927;28;19926;-92
2023/03/18 07:30:34;;;;;;;;;;;10.20;99.90;;;;;;5023838;28;20235;-92
2023/03/18 07:33:01;;;;;;;;;;;10.20;99.90;;;;;;4996435;28;19925;-91
2023/03/18 07:35:27;;;;;;;;;;;10.30;99.90;;;;;;5023530;28;19933;-90
2023/03/18 07:37:53;;;;;;;;;;;10.30;99.90;;;;;;5013282;28;20016;-90
2023/03/18 07:40:18;;;;;;;;;;;10.40;99.90;;;;;;5023805;28;19929;-92
2023/03/18 07:42:44;;;;;;;;;;;10.40;99.90;;;;;;5005391;28;19925;-91
2023/03/18 07:45:10;;;;;;;;;;;10.50;99.90;;;;;;5007147;28;19933;-92
2023/03/18 07:47:36;;;;;;;;;;;10.50;99.90;;;;;;5043399;28;19929;-90
2023/03/18 07:50:01;;;;;;;;;;;10.60;99.90;;;;;;5013620;28;19935;-90
2023/03/18 07:52:28;;;;;;;;;;;10.70;99.90;;;;;;5042706;28;19933;-90
2023/03/18 07:54:54;;;;;;;;;;;10.70;99.90;;;;;;5008893;28;19947;-92
2023/03/18 07:57:19;;;;;;;;;;;10.80;99.90;;;;;;5010534;28;19988;-91
2023/03/18 07:59:45;;;;;;;;;;;10.80;99.90;;;;;;5005795;28;20028;-94
2023/03/18 08:02:13;;;;;;;;;;;10.80;99.90;;;;;;5027489;28;19933;-92
2023/03/18 08:04:39;;;;;;;;;;;10.90;99.90;;;;;;5018166;28;19925;-91
2023/03/18 08:07:05;;;;;;;;;;;10.90;99.90;;;;;;5009011;28;20405;-91
2023/03/18 08:09:31;;;;;;;;;;;10.90;99.90;;;;;;5023641;28;20389;-91
2023/03/18 08:11:56;;;;;;;;;;;10.90;99.90;;;;;;5008862;28;20301;-92
2023/03/18 08:14:22;;;;;;;;;;;11.10;99.90;;;;;;5021450;28;19925;-92
2023/03/18 08:16:48;;;;;;;;;;;11.00;99.90;;;;;;5034515;28;19929;-94
2023/03/18 08:19:14;;;;;;;;;;;11.00;99.90;;;;;;5026669;28;19956;-93
2023/03/18 08:21:40;;;;;;;;;;;11.00;99.90;;;;;;5009696;28;19964;-90
2023/03/18 08:24:05;;;;;;;;;;;11.10;99.90;;;;;;4999616;28;19936;-93
2023/03/18 08:26:31;;;;;;;;;;;11.10;99.90;;;;;;5016284;28;19925;-93
2023/03/18 08:28:57;;;;;;;;;;;11.10;99.90;;;;;;5019549;28;20002;-93
2023/03/18 08:31:23;;;;;;;;;;;11.10;99.90;;;;;;5026390;28;19925;-95
2023/03/18 08:33:52;;;;;;;;;;;11.10;99.90;;;;;;5024884;28;20325;-91
2023/03/18 08:36:19;;;;;;;;;;;11.10;99.90;;;;;;5038538;28;20404;-91
2023/03/18 08:38:44;;;;;;;;;;;11.00;99.90;;;;;;5024703;28;19925;-91
2023/03/18 08:41:10;;;;;;;;;;;11.10;99.90;;;;;;5008791;28;20432;-90
2023/03/18 08:43:35;;;;;;;;;;;11.10;99.90;;;;;;5004910;28;19964;-90
2023/03/18 08:46:01;;;;;;;;;;;11.00;99.90;;;;;;5002880;28;19963;-91
2023/03/18 08:48:27;;;;;;;;;;;11.10;99.90;;;;;;4999190;28;19929;-92
2023/03/18 08:50:53;;;;;;;;;;;11.10;99.90;;;;;;5006048;28;20019;-90
2023/03/18 08:53:19;;;;;;;;;;;11.10;99.90;;;;;;5004226;28;19984;-91
2023/03/18 08:55:45;;;;;;;;;;;11.10;99.90;;;;;;5000010;28;19925;-90
2023/03/18 08:58:11;;;;;;;;;;;11.10;99.90;;;;;;4999057;28;20043;-91
2023/03/18 09:00:38;;;;;;;;;;;11.10;99.90;;;;;;5035329;28;19938;-90
2023/03/18 09:03:03;;;;;;;;;;;11.10;99.90;;;;;;5023745;28;20518;-91
2023/03/18 09:05:29;;;;;;;;;;;11.10;99.90;;;;;;5041770;28;19925;-89
2023/03/18 09:07:57;;;;;;;;;;;11.10;99.90;;;;;;4998537;28;19932;-91
2023/03/18 09:10:22;;;;;;;;;;;11.10;99.90;;;;;;5024810;28;19929;-90
2023/03/18 09:12:48;;;;;;;;;;;11.10;99.90;;;;;;5001412;28;19955;-90
2023/03/18 09:15:15;;;;;;;;;;;11.10;99.90;;;;;;5016023;28;20389;-91
2023/03/18 09:17:41;;;;;;;;;;;11.20;99.90;;;;;;5023837;28;19932;-90
2023/03/18 09:20:09;;;;;;;;;;;11.20;99.90;;;;;;5010038;28;19929;-91
2023/03/18 09:22:35;;;;;;;;;;;11.30;99.90;;;;;;5021152;28;19925;-91
2023/03/18 09:25:00;;;;;;;;;;;11.50;99.90;;;;;;5021696;28;19979;-92
2023/03/18 09:27:27;;;;;;;;;;;11.60;99.90;;;;;;5008625;28;19929;-90
2023/03/18 09:29:52;;;;;;;;;;;11.70;99.90;;;;;;5019659;28;19971;-90
2023/03/18 09:32:18;;;;;;;;;;;11.90;99.90;;;;;;5024370;28;20004;-90
2023/03/18 09:34:44;;;;;;;;;;;12.00;99.90;;;;;;4996636;28;19933;-90
2023/03/18 09:37:10;;;;;;;;;;;12.10;99.90;;;;;;5005557;28;19925;-91
2023/03/18 09:39:36;;;;;;;;;;;12.20;99.90;;;;;;5038375;28;19936;-90
2023/03/18 09:42:17;;;;;;;;;;;12.30;99.90;;;;;;5006750;28;19968;-91
2023/03/18 09:44:42;;;;;;;;;;;12.40;99.90;;;;;;5018508;28;19933;-89
2023/03/18 09:47:15;;;;;;;;;;;12.60;99.90;;;;;;5004148;28;19936;-90
2023/03/18 09:49:43;;;;;;;;;;;12.70;99.90;;;;;;5011009;28;19981;-90
2023/03/18 09:52:09;;;;;;;;;;;12.70;99.90;;;;;;5029672;28;19926;-90
2023/03/18 09:54:38;;;;;;;;;;;12.80;99.90;;;;;;5021406;28;19984;-91
2023/03/18 09:57:04;;;;;;;;;;;12.90;99.90;;;;;;5027246;28;19924;-90
2023/03/18 09:59:33;;;;;;;;;;;13.00;99.90;;;;;;5044130;28;19925;-91
2023/03/18 10:01:59;;;;;;;;;;;13.10;99.90;;;;;;5037704;28;19925;-90
2023/03/18 10:04:27;;;;;;;;;;;13.20;99.90;;;;;;5015891;28;20055;-91
2023/03/18 10:06:59;;;;;;;;;;;13.30;99.90;;;;;;5033885;28;19974;-91
2023/03/18 10:09:27;;;;;;;;;;;13.40;99.90;;;;;;5031693;28;19988;-91
2023/03/18 10:11:58;;;;;;;;;;;13.50;99.90;;;;;;5025770;28;19964;-91
2023/03/18 10:14:53;;;;;;;;;;;13.50;99.90;;;;;;5035101;28;19990;-91
2023/03/18 10:17:22;;;;;;;;;;;13.50;99.90;;;;;;4939115;28;19926;-90
2023/03/18 10:19:51;;;;;;;;;;;13.60;99.90;;;;;;5032279;28;19928;-90
2023/03/18 10:22:16;;;;;;;;;;;13.80;99.90;;;;;;5026447;28;19948;-90
2023/03/18 10:24:51;;;;;;;;;;;14.00;99.90;;;;;;5020882;28;19931;-90
2023/03/18 10:27:29;;;;;;;;;;;14.00;99.90;;;;;;5043971;28;19928;-91
2023/03/18 10:30:13;;;;;;;;;;;14.00;99.90;;;;;;5025948;28;20351;-91
2023/03/18 10:32:39;;;;;;;;;;;14.10;99.90;;;;;;5039346;28;20385;-92
2023/03/18 10:35:04;;;;;;;;;;;14.00;99.90;;;;;;5038948;28;19952;-92
2023/03/18 10:37:50;;;;;;;;;;;14.00;99.90;;;;;;5015104;28;19929;-91
2023/03/18 10:40:17;;;;;;;;;;;12.90;99.90;;;;;;5040066;28;19925;-91
2023/03/18 10:42:44;;;;;;;;;;;13.90;99.90;;;;;;5020633;28;19924;-92
2023/03/18 10:45:19;;;;;;;;;;;13.80;99.90;;;;;;5041374;28;20470;-91
2023/03/18 10:47:47;;;;;;;;;;;13.70;99.90;;;;;;5036467;28;19976;-93
2023/03/18 10:50:20;;;;;;;;;;;13.80;99.90;;;;;;5026346;28;19964;-95
2023/03/18 10:53:11;;;;;;;;;;;13.90;99.90;;;;;;5024150;28;19940;-92
2023/03/18 10:55:46;;;;;;;;;;;14.00;99.90;;;;;;5021704;28;19944;-93
2023/03/18 10:58:16;;;;;;;;;;;14.10;99.90;;;;;;5020155;28;19932;-91
2023/03/18 11:00:43;;;;;;;;;;;14.20;99.90;;;;;;5015075;28;19985;-92
2023/03/18 11:03:15;;;;;;;;;;;14.30;99.90;;;;;;5004313;28;19932;-93
2023/03/18 11:05:42;;;;;;;;;;;14.50;99.90;;;;;;5022564;28;19925;-96
2023/03/18 11:08:27;;;;;;;;;;;14.60;99.90;;;;;;5021542;28;19930;-93
2023/03/18 11:10:53;;;;;;;;;;;14.70;99.90;;;;;;5013052;28;19956;-94
2023/03/18 11:13:19;;;;;;;;;;;14.70;99.90;;;;;;5037858;28;19925;-95
2023/03/18 11:15:53;;;;;;;;;;;14.70;99.90;;;;;;5023392;28;19925;-95
2023/03/18 11:18:23;;;;;;;;;;;14.60;99.90;;;;;;5036982;28;19925;-93
2023/03/18 11:21:00;;;;;;;;;;;14.40;99.90;;;;;;5031985;28;19925;-93
2023/03/18 11:23:47;;;;;;;;;;;14.30;99.90;;;;;;5033430;28;19964;-93
2023/03/18 11:26:19;;;;;;;;;;;14.20;99.90;;;;;;5023425;28;19925;-94
2023/03/18 11:28:45;;;;;;;;;;;14.20;99.90;;;;;;5032712;28;19949;-92
2023/03/18 11:31:14;;;;;;;;;;;14.20;99.90;;;;;;5018360;28;19947;-93
2023/03/18 11:33:40;;;;;;;;;;;14.30;99.90;;;;;;5029516;28;19933;-94
2023/03/18 11:36:08;;;;;;;;;;;14.30;99.90;;;;;;5032413;28;19925;-94
2023/03/18 11:38:35;;;;;;;;;;;14.40;99.90;;;;;;5018021;28;19933;-92
2023/03/18 11:41:28;;;;;;;;;;;14.50;99.90;;;;;;5017816;28;19925;-93
2023/03/18 11:43:58;;;;;;;;;;;14.50;99.90;;;;;;5032458;28;19925;-93
2023/03/18 11:46:47;;;;;;;;;;;14.50;99.90;;;;;;5031980;28;19948;-93
2023/03/18 11:49:15;;;;;;;;;;;14.50;99.90;;;;;;5012608;28;19975;-93
2023/03/18 11:51:51;;;;;;;;;;;14.60;99.90;;;;;;5011364;28;19925;-95
2023/03/18 11:54:16;;;;;;;;;;;14.60;99.90;;;;;;5030610;28;19936;-91
2023/03/18 11:56:57;;;;;;;;;;;14.60;99.90;;;;;;5036293;28;19925;-93
2023/03/18 11:59:29;;;;;;;;;;;14.70;99.90;;;;;;5034033;28;19933;-92
2023/03/18 12:02:07;;;;;;;;;;;15.00;99.90;;;;;;5041832;28;19925;-92
2023/03/18 12:04:47;;;;;;;;;;;15.20;99.90;;;;;;5028279;28;19925;-92
2023/03/18 12:07:32;;;;;;;;;;;15.60;99.90;;;;;;5038079;28;20345;-94
2023/03/18 12:10:18;;;;;;;;;;;15.80;99.90;;;;;;5026466;28;20364;-93
2023/03/18 12:12:47;;;;;;;;;;;15.90;99.90;;;;;;5029888;28;19932;-93
2023/03/18 12:15:28;;;;;;;;;;;15.90;99.90;;;;;;5018869;28;19927;-94
2023/03/18 12:17:54;;;;;;;;;;;15.80;99.90;;;;;;5026067;28;19925;-93
2023/03/18 12:20:22;;;;;;;;;;;15.80;99.90;;;;;;5038896;28;19936;-95
2023/03/18 12:23:07;;;;;;;;;;;15.70;99.90;;;;;;5042081;28;20659;-94
2023/03/18 12:25:39;;;;;;;;;;;15.60;99.90;;;;;;5023487;28;19932;-94
2023/03/18 12:28:24;;;;;;;;;;;15.40;99.90;;;;;;5042469;28;19948;-93
2023/03/18 12:30:56;;;;;;;;;;;16.20;99.90;;;;;;5042689;28;19957;-94
2023/03/18 12:33:45;;;;;;;;;;;15.30;99.90;;;;;;5041047;28;19983;-93
2023/03/18 12:36:21;;;;;;;;;;;15.20;99.90;;;;;;5017435;28;19925;-94
2023/03/18 12:38:50;;;;;;;;;;;15.20;99.90;;;;;;5027827;28;19925;-93
2023/03/18 12:41:34;;;;;;;;;;;15.20;99.90;;;;;;5024911;28;20055;-93
2023/03/18 12:44:00;;;;;;;;;;;15.20;99.90;;;;;;5012823;28;19984;-93
2023/03/18 12:46:26;;;;;;;;;;;15.40;99.90;;;;;;5039076;28;19932;-93
2023/03/18 12:48:57;;;;;;;;;;;15.70;99.90;;;;;;5026670;28;19960;-94
2023/03/18 12:51:25;;;;;;;;;;;16.00;99.90;;;;;;5023501;28;19925;-94
2023/03/18 12:53:57;;;;;;;;;;;16.20;99.90;;;;;;5024120;28;19925;-94
2023/03/18 12:56:24;;;;;;;;;;;16.50;99.90;;;;;;5025847;28;20369;-95
2023/03/18 12:58:52;;;;;;;;;;;16.60;99.90;;;;;;5016426;28;20031;-93
2023/03/18 13:01:33;;;;;;;;;;;16.60;99.90;;;;;;5041838;28;19913;-94
2023/03/18 13:04:02;;;;;;;;;;;16.40;99.90;;;;;;5005905;28;19951;-94
2023/03/18 13:06:34;;;;;;;;;;;16.30;99.90;;;;;;5035281;28;19940;-94
2023/03/18 13:09:12;;;;;;;;;;;16.20;99.90;;;;;;5035501;28;20348;-94
2023/03/18 13:11:43;;;;;;;;;;;16.20;99.90;;;;;;5035159;28;20435;-96
2023/03/18 13:14:18;;;;;;;;;;;16.30;99.90;;;;;;5037401;28;20024;-96
2023/03/18 13:16:45;;;;;;;;;;;16.30;99.90;;;;;;5026390;28;19926;-94
2023/03/18 13:19:11;;;;;;;;;;;16.30;99.90;;;;;;5042892;28;19925;-96
2023/03/18 13:21:42;;;;;;;;;;;16.40;99.90;;;;;;5041107;28;19936;-96
2023/03/18 13:24:26;;;;;;;;;;;16.40;99.90;;;;;;5024796;28;19925;-94
2023/03/18 13:27:03;;;;;;;;;;;16.50;99.90;;;;;;5018774;28;19932;-94
2023/03/18 13:29:32;;;;;;;;;;;16.40;99.90;;;;;;5023878;28;19925;-94
2023/03/18 13:32:05;;;;;;;;;;;16.30;99.90;;;;;;5014884;28;19977;-94
2023/03/18 13:34:53;;;;;;;;;;;16.20;99.90;;;;;;5022490;28;19925;-93
2023/03/18 13:37:19;;;;;;;;;;;16.20;99.90;;;;;;5040329;28;19980;-95
2023/03/18 13:39:55;;;;;;;;;;;16.10;99.90;;;;;;5026212;28;19932;-95
2023/03/18 13:42:24;;;;;;;;;;;16.10;99.90;;;;;;5041021;28;20121;-94
2023/03/18 13:44:59;;;;;;;;;;;16.10;99.90;;;;;;5043596;28;19947;-95
2023/03/18 13:47:28;;;;;;;;;;;16.00;99.90;;;;;;5040168;28;19978;-93
2023/03/18 13:50:02;;;;;;;;;;;16.00;99.90;;;;;;5034082;28;19935;-95
2023/03/18 13:52:32;;;;;;;;;;;16.00;99.90;;;;;;5041976;28;19944;-94
2023/03/18 13:55:03;;;;;;;;;;;16.00;99.90;;;;;;5045856;28;19925;-95
2023/03/18 13:57:34;;;;;;;;;;;16.10;99.90;;;;;;5044236;28;20439;-95
2023/03/18 14:00:11;;;;;;;;;;;16.10;99.90;;;;;;5040184;28;20225;-93
2023/03/18 14:02:40;;;;;;;;;;;16.10;99.90;;;;;;5040645;28;19925;-95
2023/03/18 14:05:29;;;;;;;;;;;16.10;99.90;;;;;;5031538;28;19980;-94
2023/03/18 14:07:54;;;;;;;;;;;16.10;99.90;;;;;;5020755;28;19975;-94
2023/03/18 14:10:20;;;;;;;;;;;16.10;99.90;;;;;;5052662;28;19925;-95
2023/03/18 14:12:46;;;;;;;;;;;16.10;99.90;;;;;;5048227;28;20012;-96
2023/03/18 14:15:28;;;;;;;;;;;16.20;99.90;;;;;;5042294;28;20051;-95
2023/03/18 14:17:57;;;;;;;;;;;16.30;99.90;;;;;;5024631;28;19970;-95
2023/03/18 14:20:24;;;;;;;;;;;16.30;99.90;;;;;;5041099;28;19957;-94
2023/03/18 14:22:54;;;;;;;;;;;16.30;99.90;;;;;;5021360;28;20271;-96
2023/03/18 14:25:29;;;;;;;;;;;16.40;99.90;;;;;;5043588;28;19988;-95
2023/03/18 14:28:10;;;;;;;;;;;16.40;99.90;;;;;;5055098;28;19932;-94